Time;durP1;ratioP1;P1;durP2;ratioP2;P2;SDS_P1;SDS_P2;PMS_P1;PMS_P2;Temp;Humidity;BMP_temperature;BMP_pressure;BME280_temperature;BME280_humidity;BME280_pressure;Samples;Min_cycle;Max_cycle;Signal;HPM_P1;HPM_P2
2021/04/27 00:01:26;;;;;;;10.55;6.25;;;;;;;15.51;50.19;99322.78;5033065;28;20032;-38
2021/04/27 00:03:52;;;;;;;10.23;6.20;;;;;;;15.41;49.91;99326.91;5033249;28;20188;-39
2021/04/27 00:06:17;;;;;;;12.95;7.00;;;;;;;15.15;50.33;99320.34;5033573;28;20028;-42
2021/04/27 00:08:42;;;;;;;9.20;6.72;;;;;;;15.23;50.47;99324.50;5032972;28;20473;-41
2021/04/27 00:11:08;;;;;;;9.65;7.22;;;;;;;15.43;50.02;99324.81;5032913;28;20502;-43
2021/04/27 00:13:34;;;;;;;12.82;7.35;;;;;;;15.44;50.00;99323.75;5032672;28;20024;-41
2021/04/27 00:16:00;;;;;;;11.90;7.65;;;;;;;15.34;50.12;99320.91;5033220;28;20025;-40
2021/04/27 00:18:26;;;;;;;11.27;7.20;;;;;;;15.22;50.35;99337.09;5033544;28;20036;-40
2021/04/27 00:20:51;;;;;;;9.93;6.95;;;;;;;15.36;50.16;99331.41;5033173;28;20485;-39
2021/04/27 00:23:17;;;;;;;11.07;7.13;;;;;;;15.32;50.65;99336.44;5033547;28;20021;-40
2021/04/27 00:25:42;;;;;;;11.45;7.35;;;;;;;15.19;50.09;99272.44;5033580;28;20028;-47
2021/04/27 00:28:08;;;;;;;12.32;7.50;;;;;;;15.52;49.94;99329.78;5033735;28;20033;-39
2021/04/27 00:30:34;;;;;;;11.27;7.45;;;;;;;15.62;50.04;99327.22;5033470;28;20068;-39
2021/04/27 00:32:59;;;;;;;11.05;7.30;;;;;;;15.14;50.75;99301.84;5033434;28;20029;-41
2021/04/27 00:35:25;;;;;;;10.32;7.00;;;;;;;15.31;50.56;99320.63;5033299;28;20053;-41
2021/04/27 00:37:51;;;;;;;10.10;6.60;;;;;;;15.51;50.24;99331.63;5031870;28;20100;-40
2021/04/27 00:40:17;;;;;;;9.80;7.03;;;;;;;15.51;49.90;99331.63;5033223;28;20029;-43
2021/04/27 00:42:45;;;;;;;11.48;7.90;;;;;;;15.08;49.97;99338.47;5033097;28;20017;-40
2021/04/27 00:45:12;;;;;;;11.93;7.75;;;;;;;14.93;50.30;99336.34;5033132;28;20024;-38
2021/04/27 00:47:37;;;;;;;13.43;7.53;;;;;;;15.07;49.99;99338.72;5032731;28;20032;-39
2021/04/27 00:50:04;;;;;;;12.82;8.07;;;;;;;15.56;48.78;99336.25;5032902;28;20029;-39
2021/04/27 00:52:30;;;;;;;14.40;8.10;;;;;;;15.65;48.67;99337.47;5032962;28;20013;-39
2021/04/27 00:54:55;;;;;;;12.02;7.68;;;;;;;15.28;49.23;99332.63;5031556;28;20108;-40
2021/04/27 00:57:21;;;;;;;13.23;7.68;;;;;;;15.47;49.51;99335.06;5032764;28;20032;-40
2021/04/27 00:59:47;;;;;;;11.63;7.40;;;;;;;15.40;49.26;99332.53;5032942;28;20032;-39
2021/04/27 01:02:13;;;;;;;10.23;7.10;;;;;;;15.39;49.30;99333.59;5032825;28;20021;-47
2021/04/27 01:04:38;;;;;;;11.48;7.00;;;;;;;15.52;48.90;99338.63;5032655;28;20033;-39
2021/04/27 01:07:03;;;;;;;12.50;6.95;;;;;;;15.50;49.03;99350.63;5032722;28;20021;-38
2021/04/27 01:09:36;;;;;;;12.15;6.70;;;;;;;15.54;49.52;99347.22;5032202;28;20481;-39
2021/04/27 01:12:06;;;;;;;10.95;6.35;;;;;;;15.62;49.18;99346.81;5031238;28;20611;-41
2021/04/27 01:14:36;;;;;;;8.40;5.78;;;;;;;15.74;49.33;99354.78;5032627;28;20374;-38
2021/04/27 01:17:07;;;;;;;10.98;6.00;;;;;;;15.82;48.89;99349.00;5031069;28;20052;-38
2021/04/27 01:19:46;;;;;;;9.13;5.55;;;;;;;15.76;49.13;99354.53;5030951;28;20029;-38
2021/04/27 01:22:14;;;;;;;7.63;5.60;;;;;;;15.78;48.64;99358.63;5030939;28;20033;-38
2021/04/27 01:24:45;;;;;;;10.73;5.40;;;;;;;15.78;49.47;99350.56;5030746;28;20029;-38
2021/04/27 01:27:11;;;;;;;7.72;5.40;;;;;;;15.72;49.41;99348.00;5030832;28;20120;-38
2021/04/27 01:29:36;;;;;;;8.07;5.30;;;;;;;15.61;49.65;99336.31;5030488;28;20450;-37
2021/04/27 01:32:03;;;;;;;9.75;5.82;;;;;;;15.55;49.95;99340.78;5014307;28;20034;-37
2021/04/27 01:34:33;;;;;;;7.50;5.40;;;;;;;15.46;49.87;99331.56;5031638;28;20033;-37
2021/04/27 01:36:58;;;;;;;;;;;;;;;15.74;49.28;99337.88;5030941;28;20031;-38
2021/04/27 01:39:26;;;;;;;10.98;5.55;;;;;;;15.62;49.68;99338.75;5030360;28;20016;-38
2021/04/27 01:41:52;;;;;;;7.53;5.85;;;;;;;15.57;49.73;99325.28;5030606;28;20021;-38
2021/04/27 01:44:17;;;;;;;9.63;5.43;;;;;;;15.20;50.38;99338.38;5030219;28;20116;-37
2021/04/27 01:46:43;;;;;;;8.30;5.72;;;;;;;14.81;51.40;99324.88;5030010;28;20029;-37
2021/04/27 01:49:08;;;;;;;6.55;5.47;;;;;;;15.03;50.92;99341.06;5030221;28;20470;-37
2021/04/27 01:51:34;;;;;;;9.35;5.80;;;;;;;15.10;50.88;99344.41;5030094;28;20027;-38
2021/04/27 01:53:59;;;;;;;8.38;5.30;;;;;;;15.30;50.46;99340.41;5031451;28;20025;-38
2021/04/27 01:56:25;;;;;;;10.60;5.30;;;;;;;15.38;50.47;99337.31;5031054;28;20623;-38
2021/04/27 01:58:50;;;;;;;8.98;5.63;;;;;;;15.37;49.71;99328.47;5031332;28;20026;-38
2021/04/27 02:01:16;;;;;;;7.90;5.05;;;;;;;15.36;49.83;99334.06;5031419;28;20029;-38
2021/04/27 02:03:45;;;;;;;9.85;5.03;;;;;;;15.38;49.70;99324.75;5031241;28;20394;-38
2021/04/27 02:06:11;;;;;;;8.35;5.50;;;;;;;15.51;49.31;99326.25;5029977;28;20067;-38
2021/04/27 02:08:54;;;;;;;7.68;5.10;;;;;;;15.35;49.18;99316.38;5030991;28;20053;-37
2021/04/27 02:11:19;;;;;;;10.85;5.50;;;;;;;15.32;49.53;99314.19;5029120;28;20136;-38
2021/04/27 02:13:44;;;;;;;9.88;5.05;;;;;;;14.99;50.26;99321.16;5029751;28;20021;-38
2021/04/27 02:16:10;;;;;;;6.85;5.18;;;;;;;15.16;49.79;99319.31;5030879;28;20021;-38
2021/04/27 02:18:36;;;;;;;8.10;5.22;;;;;;;15.27;49.86;99319.44;5012965;28;20025;-38
2021/04/27 02:21:03;;;;;;;11.77;5.40;;;;;;;15.11;49.79;99310.38;5029984;28;20032;-38
2021/04/27 02:23:31;;;;;;;10.38;5.75;;;;;;;15.01;50.34;99311.81;5030790;28;20025;-37
2021/04/27 02:25:58;;;;;;;8.47;4.93;;;;;;;15.11;49.86;99321.09;5029767;28;20060;-37
2021/04/27 02:28:23;;;;;;;9.63;4.78;;;;;;;14.91;49.77;99324.22;5030952;28;20105;-37
2021/04/27 02:30:50;;;;;;;11.70;5.00;;;;;;;14.72;50.63;99320.97;5029437;28;20056;-38
2021/04/27 02:33:15;;;;;;;7.90;4.88;;;;;;;14.74;50.14;99319.69;5029557;28;20579;-38
2021/04/27 02:35:41;;;;;;;9.13;5.10;;;;;;;14.88;49.68;99332.75;5029491;28;20025;-38
2021/04/27 02:38:06;;;;;;;5.78;4.97;;;;;;;14.98;49.88;99338.28;5013143;28;20018;-37
2021/04/27 02:40:32;;;;;;;8.55;5.00;;;;;;;14.78;49.96;99328.84;5031093;28;20386;-38
2021/04/27 02:42:59;;;;;;;8.63;5.18;;;;;;;14.39;50.92;99330.50;5030787;28;20091;-37
2021/04/27 02:45:31;;;;;;;7.28;4.95;;;;;;;14.55;50.96;99328.94;5030617;28;20036;-38
2021/04/27 02:48:12;;;;;;;8.10;4.90;;;;;;;14.32;50.79;99319.09;5030786;28;20084;-38
2021/04/27 02:50:39;;;;;;;14.98;4.82;;;;;;;14.53;50.35;99326.50;5030392;28;20033;-38
2021/04/27 02:53:04;;;;;;;11.45;5.25;;;;;;;14.70;50.23;99323.91;5030584;28;20113;-38
2021/04/27 02:55:30;;;;;;;7.97;4.93;;;;;;;14.62;50.08;99308.19;5030749;28;20021;-37
2021/04/27 02:57:55;;;;;;;8.70;5.15;;;;;;;14.15;51.78;99317.19;5030424;28;20090;-38
2021/04/27 03:00:21;;;;;;;6.85;5.43;;;;;;;14.31;51.06;99318.31;5030304;28;20033;-38
2021/04/27 03:02:46;;;;;;;9.40;5.30;;;;;;;14.68;50.47;99311.78;5030311;28;20029;-38
2021/04/27 03:05:12;;;;;;;7.47;4.80;;;;;;;14.75;49.86;99307.09;5030018;28;20026;-44
2021/04/27 03:07:38;;;;;;;31.08;16.98;;;;;;;14.72;50.21;99305.72;5030555;28;20437;-38
2021/04/27 03:10:04;;;;;;;9.45;5.60;;;;;;;14.96;49.43;99314.41;5030270;28;20466;-38
2021/04/27 03:12:29;;;;;;;8.88;5.50;;;;;;;14.84;50.10;99313.69;5030272;28;20107;-38
2021/04/27 03:14:54;;;;;;;11.48;7.07;;;;;;;14.87;49.96;99315.88;5030392;28;20036;-38
2021/04/27 03:17:20;;;;;;;9.00;5.22;;;;;;;14.89;49.96;99318.28;5030338;28;20034;-39
2021/04/27 03:19:45;;;;;;;7.93;5.05;;;;;;;14.95;49.83;99317.34;5030379;28;20405;-38
2021/04/27 03:22:11;;;;;;;11.70;5.40;;;;;;;14.89;50.07;99311.09;5029848;28;20040;-37
2021/04/27 03:24:36;;;;;;;9.45;5.40;;;;;;;15.16;49.51;99305.09;5028688;28;20033;-38
2021/04/27 03:27:02;;;;;;;12.82;5.53;;;;;;;15.05;49.55;99304.91;5029841;28;20029;-38
2021/04/27 03:29:28;;;;;;;9.40;5.63;;;;;;;15.09;49.54;99297.22;5029935;28;20021;-38
2021/04/27 03:31:53;;;;;;;11.68;6.85;;;;;;;15.12;49.32;99301.28;5030413;28;20033;-39
2021/04/27 03:34:19;;;;;;;11.32;6.28;;;;;;;15.13;49.42;99294.84;5034172;28;20033;-38
2021/04/27 03:36:44;;;;;;;9.52;5.97;;;;;;;15.03;49.63;99308.91;5034071;28;20374;-38
2021/04/27 03:39:10;;;;;;;9.13;5.30;;;;;;;15.03;49.99;99311.59;5033595;28;20033;-38
2021/04/27 03:41:36;;;;;;;8.32;5.40;;;;;;;14.97;49.74;99307.22;5033746;28;20021;-38
2021/04/27 03:44:01;;;;;;;10.68;5.70;;;;;;;14.86;52.10;99300.84;5033430;28;20087;-39
2021/04/27 03:46:27;;;;;;;9.20;6.00;;;;;;;13.95;57.69;99328.28;5030981;28;20112;-38
2021/04/27 03:48:52;;;;;;;10.60;5.57;;;;;;;14.33;57.63;99321.56;5032667;28;20013;-37
2021/04/27 03:51:18;;;;;;;11.07;5.55;;;;;;;14.84;55.28;99321.72;5032694;28;20458;-38
2021/04/27 03:53:43;;;;;;;8.75;5.18;;;;;;;14.85;52.39;99326.84;5032757;28;20064;-38
2021/04/27 03:56:09;;;;;;;9.25;5.47;;;;;;;14.52;51.31;99332.09;5032892;28;20024;-38
2021/04/27 03:58:34;;;;;;;10.38;5.70;;;;;;;13.72;53.29;99344.38;5032402;28;20009;-38
2021/04/27 04:01:00;;;;;;;10.93;5.78;;;;;;;13.42;53.74;99353.31;5032316;28;20022;-38
2021/04/27 04:03:25;;;;;;;11.63;5.85;;;;;;;14.01;52.87;99359.47;5032036;28;20091;-38
2021/04/27 04:05:51;;;;;;;9.02;5.65;;;;;;;13.56;53.87;99346.69;5032799;28;20033;-38
2021/04/27 04:08:16;;;;;;;12.93;7.63;;;;;;;12.50;55.57;99277.84;5032615;28;20484;-38
2021/04/27 04:10:41;;;;;;;8.25;5.60;;;;;;;12.65;55.99;99338.03;5032381;28;20115;-37
2021/04/27 04:13:07;;;;;;;10.00;6.05;;;;;;;12.97;55.33;99343.13;5032392;28;20113;-38
2021/04/27 04:15:32;;;;;;;9.75;5.70;;;;;;;13.76;53.35;99359.69;5031587;28;20500;-37
2021/04/27 04:17:58;;;;;;;11.35;6.10;;;;;;;13.65;53.70;99356.00;5032580;28;20017;-38
2021/04/27 04:20:24;;;;;;;10.18;6.80;;;;;;;13.39;54.58;99353.78;5032520;28;20029;-38
2021/04/27 04:22:49;;;;;;;10.10;6.20;;;;;;;12.85;55.27;99354.59;5032529;28;20057;-37
2021/04/27 04:25:16;;;;;;;14.68;6.80;;;;;;;14.27;65.32;99363.47;5028278;28;20059;-38
2021/04/27 04:27:41;;;;;;;11.40;5.90;;;;;;;14.37;51.62;99365.53;5032029;28;20025;-38
2021/04/27 04:30:22;;;;;;;13.10;6.10;;;;;;;14.04;53.17;99366.19;5029366;28;20113;-38
2021/04/27 04:32:47;;;;;;;;;;;;;;;13.89;53.19;99375.50;5032260;28;20091;-39
2021/04/27 04:35:14;;;;;;;11.38;5.90;;;;;;;13.85;53.14;99382.38;5025804;28;19910;-38
2021/04/27 04:37:39;;;;;;;12.93;6.35;;;;;;;14.14;52.84;99392.34;5012203;28;20461;-38
2021/04/27 04:40:06;;;;;;;10.77;5.68;;;;;;;14.45;51.75;99388.47;5012272;28;20033;-37
2021/04/27 04:42:31;;;;;;;8.50;5.30;;;;;;;14.16;52.57;99400.97;5011866;28;20378;-39
2021/04/27 04:44:56;;;;;;;11.73;5.90;;;;;;;14.03;52.41;99410.88;5011530;28;20017;-39
2021/04/27 04:47:22;;;;;;;9.93;5.38;;;;;;;14.21;52.01;99406.44;5013908;28;20512;-38
2021/04/27 04:49:47;;;;;;;6.47;5.05;;;;;;;14.74;50.04;99408.06;5011774;28;20030;-37
2021/04/27 04:52:13;;;;;;;8.60;5.72;;;;;;;15.14;49.35;99407.19;5011302;28;20033;-39
2021/04/27 04:54:38;;;;;;;10.75;5.85;;;;;;;14.86;53.81;99416.03;5011295;28;20049;-37
2021/04/27 04:57:04;;;;;;;11.90;5.88;;;;;;;15.41;48.57;99420.75;5012336;28;20105;-37
2021/04/27 04:59:30;;;;;;;10.32;5.10;;;;;;;15.79;46.98;99415.75;5021100;28;20469;-38
2021/04/27 05:01:55;;;;;;;10.07;5.40;;;;;;;15.88;47.40;99427.69;5031501;28;20036;-38
2021/04/27 05:04:21;;;;;;;7.00;5.13;;;;;;;16.11;46.26;99417.81;5031346;28;20476;-39
2021/04/27 05:06:46;;;;;;;8.52;5.32;;;;;;;16.31;46.77;99415.38;5028453;28;20037;-37
2021/04/27 05:09:12;;;;;;;15.10;5.38;;;;;;;16.53;45.36;99407.34;5031029;28;20021;-39
2021/04/27 05:11:41;;;;;;;12.07;8.02;;;;;;;16.66;45.59;99414.22;5031201;28;20076;-38
2021/04/27 05:14:06;;;;;;;9.20;5.60;;;;;;;16.98;45.63;99426.94;5031282;28;20033;-37
2021/04/27 05:16:32;;;;;;;12.52;5.38;;;;;;;17.31;43.17;99417.84;5031286;28;20040;-38
2021/04/27 05:18:58;;;;;;;8.57;5.97;;;;;;;17.36;42.73;99411.69;5030975;28;20049;-38
2021/04/27 05:21:23;;;;;;;11.45;5.00;;;;;;;17.37;43.63;99406.06;5029535;28;20029;-38
2021/04/27 05:23:48;;;;;;;10.57;5.85;;;;;;;17.47;43.87;99396.47;5030812;28;20029;-38
2021/04/27 05:26:14;;;;;;;8.07;5.82;;;;;;;17.79;43.96;99413.38;5030972;28;20029;-38
2021/04/27 05:28:39;;;;;;;10.05;5.50;;;;;;;18.05;42.15;99412.75;5030947;28;20045;-37
2021/04/27 05:31:05;;;;;;;11.20;5.82;;;;;;;17.91;42.90;99420.47;5030989;28;20480;-37
2021/04/27 05:33:31;;;;;;;18.05;8.68;;;;;;;17.95;44.39;99425.09;5030723;28;20038;-38
2021/04/27 05:35:56;;;;;;;17.70;10.77;;;;;;;18.38;42.52;99425.03;5030773;28;20030;-38
2021/04/27 05:38:21;;;;;;;12.32;6.97;;;;;;;18.80;41.05;99416.06;5030453;28;20025;-38
2021/04/27 05:40:47;;;;;;;11.93;6.35;;;;;;;18.88;40.22;99407.44;5030313;28;20044;-38
2021/04/27 05:43:13;;;;;;;9.65;6.20;;;;;;;18.62;40.24;99403.84;5029411;28;20025;-38
2021/04/27 05:45:38;;;;;;;9.65;6.13;;;;;;;18.44;40.56;99398.94;5029269;28;20470;-38
2021/04/27 05:48:04;;;;;;;9.07;5.55;;;;;;;17.96;41.27;99394.41;5030600;28;20036;-38
2021/04/27 05:50:30;;;;;;;10.40;5.43;;;;;;;17.73;41.80;99386.69;5030248;28;20023;-39
2021/04/27 05:52:55;;;;;;;8.55;4.68;;;;;;;17.42;42.56;99391.03;5030409;28;20033;-38
2021/04/27 05:55:21;;;;;;;9.20;5.22;;;;;;;17.39;43.13;99386.97;5030460;28;20048;-38
2021/04/27 05:57:46;;;;;;;8.13;4.75;;;;;;;17.66;41.45;99394.19;5030534;28;20095;-39
2021/04/27 06:00:13;;;;;;;11.52;5.22;;;;;;;18.11;40.69;99382.91;5030051;28;20131;-38
2021/04/27 06:02:38;;;;;;;8.93;5.25;;;;;;;18.31;40.69;99375.97;5028706;28;20025;-39
2021/04/27 06:05:04;;;;;;;8.60;5.15;;;;;;;18.45;40.10;99369.03;5030126;28;20452;-38
2021/04/27 06:07:30;;;;;;;13.23;5.30;;;;;;;18.37;40.55;99369.53;5029739;28;20029;-37
2021/04/27 06:09:55;;;;;;;7.53;4.53;;;;;;;17.96;41.78;99367.47;5029816;28;20028;-39
2021/04/27 06:12:21;;;;;;;14.52;5.53;;;;;;;18.04;41.24;99357.28;5029510;28;20048;-39
2021/04/27 06:14:46;;;;;;;9.18;5.10;;;;;;;18.06;40.97;99349.75;5029839;28;20029;-38
2021/04/27 06:17:12;;;;;;;18.63;5.70;;;;;;;18.45;41.04;99346.66;5029948;28;20041;-38
2021/04/27 06:19:37;;;;;;;9.15;4.93;;;;;;;18.64;40.87;99341.59;5029968;28;20084;-39
2021/04/27 06:22:02;;;;;;;10.45;5.55;;;;;;;18.84;40.65;99322.00;5029771;28;20033;-39
2021/04/27 06:24:28;;;;;;;9.60;5.38;;;;;;;19.43;39.45;99324.13;5029945;28;20029;-39
2021/04/27 06:26:53;;;;;;;7.65;5.35;;;;;;;18.50;40.60;99325.94;5029986;28;20029;-39
2021/04/27 06:29:19;;;;;;;6.72;4.60;;;;;;;18.29;40.76;99318.88;5029879;28;20075;-39
2021/04/27 06:31:44;;;;;;;7.47;4.70;;;;;;;18.91;39.90;99319.84;5029858;28;20029;-39
2021/04/27 06:34:10;;;;;;;10.10;4.95;;;;;;;18.81;39.71;99314.44;5029808;28;20033;-39
2021/04/27 06:36:35;;;;;;;7.22;4.50;;;;;;;19.30;39.05;99305.81;5029574;28;20034;-38
2021/04/27 06:39:01;;;;;;;7.05;4.78;;;;;;;19.19;39.39;99307.72;5029543;28;20034;-38
2021/04/27 06:41:27;;;;;;;6.50;4.10;;;;;;;18.72;39.77;99320.34;5029885;28;20112;-38
2021/04/27 06:43:52;;;;;;;6.68;4.43;;;;;;;19.19;39.70;99310.41;5028480;28;20033;-38
2021/04/27 06:46:18;;;;;;;11.07;4.53;;;;;;;19.98;38.68;99312.69;5029462;28;20029;-39
2021/04/27 06:48:43;;;;;;;6.63;4.65;;;;;;;19.56;39.21;99319.28;5029670;28;20088;-40
2021/04/27 06:51:09;;;;;;;7.53;4.68;;;;;;;19.26;39.22;99312.84;5029389;28;20485;-39
2021/04/27 06:53:34;;;;;;;9.15;4.43;;;;;;;19.88;38.88;99316.25;5029734;28;20504;-39
2021/04/27 06:56:00;;;;;;;8.48;4.88;;;;;;;20.31;38.33;99320.13;5028865;28;20093;-39
2021/04/27 06:58:25;;;;;;;9.50;4.55;;;;;;;20.72;37.72;99319.09;5029442;28;20091;-39
2021/04/27 07:00:51;;;;;;;8.82;4.30;;;;;;;20.56;37.33;99329.19;5028773;28;20184;-39
2021/04/27 07:03:16;;;;;;;5.88;4.10;;;;;;;20.26;37.69;99333.66;5028968;28;20036;-39
2021/04/27 07:05:43;;;;;;;7.07;4.40;;;;;;;20.73;36.88;99328.00;5029602;28;20029;-40
2021/04/27 07:08:09;;;;;;;9.27;4.97;;;;;;;20.79;37.23;99318.75;5031651;28;20057;-39
2021/04/27 07:10:34;;;;;;;11.02;4.70;;;;;;;21.11;36.91;99310.13;5033398;28;20032;-39
2021/04/27 07:13:00;;;;;;;7.45;4.63;;;;;;;20.86;37.22;99297.63;5033341;28;20018;-39
2021/04/27 07:15:26;;;;;;;6.60;4.70;;;;;;;20.08;37.58;99307.25;5033418;28;20029;-39
2021/04/27 07:17:51;;;;;;;6.35;4.80;;;;;;;21.18;36.54;99312.53;5033462;28;20029;-39
2021/04/27 07:20:17;;;;;;;7.47;4.70;;;;;;;22.11;34.93;99318.63;5032920;28;20033;-39
2021/04/27 07:22:42;;;;;;;15.93;8.27;;;;;;;22.82;34.21;99316.03;5033537;28;20017;-39
2021/04/27 07:25:08;;;;;;;14.80;6.93;;;;;;;22.78;33.96;99321.22;5032291;28;20119;-38
2021/04/27 07:27:34;;;;;;;13.15;6.18;;;;;;;22.63;33.13;99311.41;5032075;28;20032;-38
2021/04/27 07:30:00;;;;;;;5.93;4.22;;;;;;;20.84;35.90;99314.13;5032360;28;20010;-38
2021/04/27 07:32:25;;;;;;;7.70;4.18;;;;;;;21.46;35.46;99314.47;5031716;28;20452;-39
2021/04/27 07:34:51;;;;;;;7.18;4.30;;;;;;;21.95;34.97;99311.75;5032347;28;20524;-39
2021/04/27 07:37:19;;;;;;;9.88;5.93;;;;;;;22.17;34.40;99314.72;5032942;28;20378;-39
2021/04/27 07:39:45;;;;;;;6.85;4.15;;;;;;;21.72;34.79;99313.38;5032157;28;20079;-39
2021/04/27 07:42:11;;;;;;;6.60;4.13;;;;;;;22.20;34.46;99313.34;5033130;28;20402;-39
2021/04/27 07:44:36;;;;;;;10.05;4.50;;;;;;;22.19;35.34;99311.75;5032560;28;20025;-39
2021/04/27 07:47:02;;;;;;;8.52;4.75;;;;;;;23.17;33.26;99300.28;5032638;28;20467;-39
2021/04/27 07:49:27;;;;;;;7.78;4.60;;;;;;;23.19;33.13;99284.53;5031391;28;20047;-39
2021/04/27 07:51:53;;;;;;;5.68;4.10;;;;;;;23.51;33.29;99301.88;5033008;28;20033;-39
2021/04/27 07:54:18;;;;;;;8.57;4.72;;;;;;;22.24;35.03;99314.38;5032619;28;20025;-39
2021/04/27 07:56:44;;;;;;;7.68;4.70;;;;;;;22.32;35.23;99310.25;5032841;28;20029;-38
2021/04/27 07:59:09;;;;;;;6.60;4.60;;;;;;;22.26;34.74;99306.81;5032099;28;20342;-38
2021/04/27 08:01:35;;;;;;;7.85;4.70;;;;;;;22.20;35.20;99306.03;5032529;28;20034;-38
2021/04/27 08:04:01;;;;;;;7.18;4.38;;;;;;;22.38;35.41;99288.19;5031704;28;20460;-38
2021/04/27 08:06:27;;;;;;;10.45;4.22;;;;;;;23.02;34.00;99302.16;5031798;28;20559;-38
2021/04/27 08:08:52;;;;;;;9.05;4.28;;;;;;;22.82;34.01;99297.03;5031148;28;20029;-38
2021/04/27 08:11:18;;;;;;;7.60;4.45;;;;;;;22.84;33.93;99303.78;5032737;28;20103;-39
2021/04/27 08:13:43;;;;;;;9.63;4.60;;;;;;;22.78;34.98;99298.75;5032617;28;20496;-38
2021/04/27 08:16:09;;;;;;;10.15;4.60;;;;;;;23.90;33.46;99290.56;5032179;28;20033;-39
2021/04/27 08:18:36;;;;;;;5.95;4.43;;;;;;;24.16;32.12;99292.72;5031172;28;20049;-39
2021/04/27 08:21:06;;;;;;;11.95;4.32;;;;;;;24.09;32.57;99286.91;5031826;28;20032;-38
2021/04/27 08:23:31;;;;;;;;;;;;;;;23.55;33.53;99279.25;5032742;28;20028;-38
2021/04/27 08:25:58;;;;;;;7.38;4.25;;;;;;;23.52;33.91;99269.00;5031959;28;19909;-39
2021/04/27 08:28:23;;;;;;;6.88;4.68;;;;;;;22.19;35.89;99271.09;5032249;28;20461;-39
2021/04/27 08:30:49;;;;;;;7.55;4.60;;;;;;;22.48;35.23;99281.03;5032518;28;20028;-39
2021/04/27 08:33:14;;;;;;;9.93;4.65;;;;;;;22.36;36.36;99278.75;5032193;28;20048;-38
2021/04/27 08:35:40;;;;;;;6.60;4.75;;;;;;;23.05;34.88;99279.06;5032192;28;20021;-39
2021/04/27 08:38:06;;;;;;;9.02;4.80;;;;;;;22.47;35.50;99282.13;5031950;28;20075;-39
2021/04/27 08:40:31;;;;;;;7.35;4.50;;;;;;;23.04;34.25;99293.75;5030999;28;20025;-38
2021/04/27 08:42:57;;;;;;;7.35;4.55;;;;;;;23.36;33.85;99289.38;5013995;28;20059;-38
2021/04/27 08:45:22;;;;;;;7.28;4.90;;;;;;;23.40;34.30;99285.78;5032089;28;20029;-39
2021/04/27 08:47:48;;;;;;;8.13;5.47;;;;;;;23.37;33.53;99291.78;5031654;28;20025;-39
2021/04/27 08:50:14;;;;;;;8.52;5.13;;;;;;;22.85;33.93;99296.47;5031384;28;20030;-41
2021/04/27 08:52:40;;;;;;;10.25;5.18;;;;;;;22.75;34.62;99288.47;5031310;28;20029;-38
2021/04/27 08:55:06;;;;;;;7.55;4.88;;;;;;;23.49;33.34;99271.50;5031623;28;20025;-38
2021/04/27 08:57:33;;;;;;;7.70;4.82;;;;;;;23.31;34.20;99273.19;5031560;28;20100;-39
2021/04/27 08:59:58;;;;;;;7.47;4.82;;;;;;;22.45;34.99;99277.78;5030945;28;20021;-39
2021/04/27 09:02:28;;;;;;;6.95;5.00;;;;;;;23.23;33.81;99274.69;5030705;28;20032;-40
2021/04/27 09:04:53;;;;;;;;;;;;;;;21.94;35.36;99274.94;5031450;28;20035;-39
2021/04/27 09:07:20;;;;;;;8.88;4.97;;;;;;;22.38;34.52;99261.09;5031048;28;19909;-39
2021/04/27 09:09:52;;;;;;;9.50;4.80;;;;;;;22.70;34.71;99240.56;5030826;28;20056;-39
2021/04/27 09:12:31;;;;;;;8.73;4.80;;;;;;;23.14;33.40;99250.13;5031073;28;20452;-39
2021/04/27 09:14:58;;;;;;;9.43;4.70;;;;;;;22.60;34.36;99251.56;5029779;28;20394;-39
2021/04/27 09:17:25;;;;;;;9.77;5.00;;;;;;;22.68;34.25;99244.66;5030817;28;20132;-39
2021/04/27 09:19:52;;;;;;;8.70;4.60;;;;;;;23.13;33.24;99245.84;5030464;28;20101;-38
2021/04/27 09:22:19;;;;;;;7.63;4.80;;;;;;;23.24;33.36;99246.44;5031239;28;20087;-39
2021/04/27 09:24:54;;;;;;;6.88;4.80;;;;;;;23.34;33.60;99240.84;5030846;28;20051;-39
2021/04/27 09:27:26;;;;;;;10.13;5.00;;;;;;;23.11;33.58;99236.34;5030829;28;20055;-38
2021/04/27 09:29:52;;;;;;;8.20;4.68;;;;;;;23.85;32.54;99235.50;5030210;28;20041;-39
2021/04/27 09:32:31;;;;;;;6.88;4.50;;;;;;;24.89;31.66;99233.69;5031146;28;20064;-38
2021/04/27 09:34:56;;;;;;;9.03;4.57;;;;;;;24.92;30.80;99226.81;5027181;28;20057;-39
2021/04/27 09:37:22;;;;;;;6.13;4.10;;;;;;;25.78;30.18;99233.78;5031130;28;20544;-38
2021/04/27 09:39:50;;;;;;;7.75;4.50;;;;;;;25.96;29.61;99240.06;5029822;28;20480;-39
2021/04/27 09:42:22;;;;;;;7.35;4.60;;;;;;;25.05;30.54;99222.41;5026019;28;20029;-39
2021/04/27 09:44:50;;;;;;;7.60;4.32;;;;;;;24.17;31.67;99212.81;5011281;28;20038;-39
2021/04/27 09:47:21;;;;;;;7.78;4.47;;;;;;;23.22;32.93;99216.06;5011485;28;20426;-39
2021/04/27 09:49:54;;;;;;;7.43;4.53;;;;;;;23.74;32.73;99205.00;5011037;28;20025;-39
2021/04/27 09:52:19;;;;;;;8.63;4.32;;;;;;;24.74;31.28;99212.31;5010956;28;20103;-38
2021/04/27 09:54:59;;;;;;;7.28;4.43;;;;;;;25.30;30.17;99205.44;5010735;28;20026;-39
2021/04/27 09:57:29;;;;;;;5.35;4.10;;;;;;;25.29;30.03;99189.41;5011829;28;20096;-39
2021/04/27 09:59:55;;;;;;;8.25;4.80;;;;;;;24.75;31.24;99182.06;5029361;28;20044;-39
2021/04/27 10:02:21;;;;;;;8.63;4.43;;;;;;;24.77;31.64;99179.84;5030453;28;20432;-38
2021/04/27 10:04:48;;;;;;;6.38;4.10;;;;;;;25.27;30.22;99181.53;5029996;28;20470;-38
2021/04/27 10:07:13;;;;;;;7.65;4.03;;;;;;;24.51;31.03;99171.50;5012614;28;20029;-38
2021/04/27 10:09:39;;;;;;;6.40;3.97;;;;;;;23.90;31.87;99162.84;5029822;28;20017;-38
2021/04/27 10:12:06;;;;;;;6.50;4.18;;;;;;;24.32;31.75;99177.09;5011915;28;20045;-39
2021/04/27 10:14:32;;;;;;;6.47;4.28;;;;;;;24.98;30.78;99163.78;5012250;28;20056;-40
2021/04/27 10:16:57;;;;;;;7.60;4.43;;;;;;;24.54;31.87;99162.75;5012091;28;20025;-45
2021/04/27 10:19:23;;;;;;;8.05;4.05;;;;;;;25.27;31.32;99175.28;5012220;28;20034;-39
2021/04/27 10:21:49;;;;;;;7.47;4.25;;;;;;;24.45;31.89;99166.50;5011938;28;20462;-39
2021/04/27 10:24:17;;;;;;;7.00;4.13;;;;;;;24.15;32.41;99156.03;5029863;28;20040;-39
2021/04/27 10:26:44;;;;;;;7.22;4.00;;;;;;;25.00;31.22;99162.66;5028605;28;20059;-39
2021/04/27 10:29:25;;;;;;;6.70;4.28;;;;;;;25.61;30.36;99158.25;5028794;28;20030;-40
2021/04/27 10:32:20;;;;;;;6.20;4.03;;;;;;;25.74;30.12;99148.31;5029527;28;20040;-39
2021/04/27 10:35:01;;;;;;;9.13;4.00;;;;;;;24.75;31.32;99138.53;5029451;28;20386;-39
2021/04/27 10:37:47;;;;;;;9.68;3.40;;;;;;;24.99;31.03;99140.09;5029779;28;20092;-38
2021/04/27 10:40:13;;;;;;;10.48;4.00;;;;;;;24.95;31.11;99144.56;5032058;28;20080;-38
2021/04/27 10:42:38;;;;;;;6.63;3.80;;;;;;;25.46;30.58;99151.31;5011049;28;20112;-39
2021/04/27 10:45:06;;;;;;;9.02;4.13;;;;;;;25.15;30.86;99143.16;5011859;28;20097;-39
2021/04/27 10:47:40;;;;;;;6.53;3.63;;;;;;;25.73;30.19;99142.06;5029571;28;20025;-39
2021/04/27 10:50:06;;;;;;;7.30;3.88;;;;;;;25.43;30.76;99140.25;5029736;28;20034;-39
2021/04/27 10:52:33;;;;;;;6.40;3.92;;;;;;;25.48;30.30;99121.06;5028449;28;20029;-39
2021/04/27 10:55:27;;;;;;;6.43;3.25;;;;;;;25.25;29.96;99118.44;5030044;28;20087;-38
2021/04/27 10:58:03;;;;;;;6.63;3.70;;;;;;;24.92;31.29;99121.50;5028362;28;20457;-39
2021/04/27 11:00:42;;;;;;;8.35;3.30;;;;;;;24.31;31.81;99125.75;5029513;28;20022;-39
2021/04/27 11:03:15;;;;;;;8.13;3.78;;;;;;;24.89;30.52;99130.28;5029839;28;20029;-39
2021/04/27 11:05:50;;;;;;;8.13;4.00;;;;;;;25.70;30.77;99120.94;5029811;28;20425;-39
2021/04/27 11:08:15;;;;;;;8.35;3.80;;;;;;;26.07;30.29;99121.44;5029392;28;20295;-39
2021/04/27 11:10:42;;;;;;;7.40;3.95;;;;;;;25.59;30.60;99122.34;5029351;28;20406;-39
2021/04/27 11:13:08;;;;;;;7.78;4.00;;;;;;;25.20;31.30;99113.09;5029429;28;20118;-39
2021/04/27 11:15:34;;;;;;;6.18;3.70;;;;;;;25.31;30.85;99103.53;5029368;28;20489;-39
2021/04/27 11:18:13;;;;;;;7.60;4.53;;;;;;;26.18;30.80;99102.00;5029212;28;20017;-39
2021/04/27 11:20:44;;;;;;;7.47;3.67;;;;;;;26.31;29.68;99093.66;5028867;28;20134;-39
2021/04/27 11:23:35;;;;;;;7.45;3.78;;;;;;;27.30;28.07;99094.59;5029567;28;20415;-38
2021/04/27 11:26:02;;;;;;;7.88;3.47;;;;;;;26.01;28.68;99100.09;5028438;28;20032;-38
2021/04/27 11:28:56;;;;;;;4.20;3.25;;;;;;;26.53;28.30;99095.34;5029083;28;20029;-38
2021/04/27 11:31:22;;;;;;;5.68;3.25;;;;;;;25.89;29.24;99098.81;5029177;28;20022;-39